sensor_id;sensor_type;location;lat;lon;timestamp;P1;durP1;ratioP1;P2;durP2;ratioP2
15848;SDS011;8024;48.708;9.394;2023-05-24T00:00:02;4.83;;;2.87;;
15848;SDS011;8024;48.708;9.394;2023-05-24T00:02:33;6.17;;;2.77;;
15848;SDS011;8024;48.708;9.394;2023-05-24T00:05:01;6.83;;;4.27;;
15848;SDS011;8024;48.708;9.394;2023-05-24T00:07:30;2.77;;;2.30;;
15848;SDS011;8024;48.708;9.394;2023-05-24T00:09:57;2.30;;;2.10;;
15848;SDS011;8024;48.708;9.394;2023-05-24T00:12:24;3.80;;;2.70;;
15848;SDS011;8024;48.708;9.394;2023-05-24T00:14:52;3.30;;;2.53;;
15848;SDS011;8024;48.708;9.394;2023-05-24T00:17:19;4.03;;;2.17;;
15848;SDS011;8024;48.708;9.394;2023-05-24T00:19:46;2.73;;;2.40;;
15848;SDS011;8024;48.708;9.394;2023-05-24T00:22:13;2.80;;;2.20;;
15848;SDS011;8024;48.708;9.394;2023-05-24T00:24:42;4.50;;;2.53;;
15848;SDS011;8024;48.708;9.394;2023-05-24T00:27:09;3.50;;;2.23;;
15848;SDS011;8024;48.708;9.394;2023-05-24T00:29:36;3.53;;;2.63;;
15848;SDS011;8024;48.708;9.394;2023-05-24T00:32:04;3.73;;;2.53;;
15848;SDS011;8024;48.708;9.394;2023-05-24T00:34:31;3.43;;;2.27;;
15848;SDS011;8024;48.708;9.394;2023-05-24T00:36:59;5.70;;;2.43;;
15848;SDS011;8024;48.708;9.394;2023-05-24T00:39:26;2.63;;;1.90;;
15848;SDS011;8024;48.708;9.394;2023-05-24T00:41:54;3.13;;;2.43;;
15848;SDS011;8024;48.708;9.394;2023-05-24T00:44:21;4.20;;;2.40;;
15848;SDS011;8024;48.708;9.394;2023-05-24T00:46:48;3.50;;;2.33;;
15848;SDS011;8024;48.708;9.394;2023-05-24T00:49:16;3.07;;;2.07;;
15848;SDS011;8024;48.708;9.394;2023-05-24T00:51:43;3.37;;;2.27;;
15848;SDS011;8024;48.708;9.394;2023-05-24T00:54:11;3.90;;;2.10;;
15848;SDS011;8024;48.708;9.394;2023-05-24T00:56:39;2.37;;;2.03;;
15848;SDS011;8024;48.708;9.394;2023-05-24T00:59:08;2.20;;;1.90;;
15848;SDS011;8024;48.708;9.394;2023-05-24T01:01:35;4.07;;;2.23;;
15848;SDS011;8024;48.708;9.394;2023-05-24T01:04:03;4.03;;;2.40;;
15848;SDS011;8024;48.708;9.394;2023-05-24T01:06:31;4.97;;;2.87;;
15848;SDS011;8024;48.708;9.394;2023-05-24T01:09:12;6.37;;;3.00;;
15848;SDS011;8024;48.708;9.394;2023-05-24T01:11:49;2.93;;;2.17;;
15848;SDS011;8024;48.708;9.394;2023-05-24T01:14:28;2.80;;;2.53;;
15848;SDS011;8024;48.708;9.394;2023-05-24T01:17:05;3.17;;;2.37;;
15848;SDS011;8024;48.708;9.394;2023-05-24T01:19:39;2.53;;;2.33;;
15848;SDS011;8024;48.708;9.394;2023-05-24T01:22:28;5.37;;;2.70;;
15848;SDS011;8024;48.708;9.394;2023-05-24T01:25:13;2.77;;;2.33;;
15848;SDS011;8024;48.708;9.394;2023-05-24T01:27:47;3.37;;;2.47;;
15848;SDS011;8024;48.708;9.394;2023-05-24T01:30:16;5.53;;;2.30;;
15848;SDS011;8024;48.708;9.394;2023-05-24T01:32:43;6.60;;;3.10;;
15848;SDS011;8024;48.708;9.394;2023-05-24T01:35:10;4.17;;;2.63;;
15848;SDS011;8024;48.708;9.394;2023-05-24T01:37:37;3.50;;;2.30;;
15848;SDS011;8024;48.708;9.394;2023-05-24T01:56:25;3.53;;;2.50;;
15848;SDS011;8024;48.708;9.394;2023-05-24T01:58:54;3.70;;;2.47;;
15848;SDS011;8024;48.708;9.394;2023-05-24T02:01:23;5.60;;;2.47;;
15848;SDS011;8024;48.708;9.394;2023-05-24T02:03:52;4.10;;;2.73;;
15848;SDS011;8024;48.708;9.394;2023-05-24T02:06:20;4.80;;;3.10;;
15848;SDS011;8024;48.708;9.394;2023-05-24T02:08:47;3.47;;;2.60;;
15848;SDS011;8024;48.708;9.394;2023-05-24T02:11:15;7.10;;;2.80;;
15848;SDS011;8024;48.708;9.394;2023-05-24T02:13:42;5.00;;;2.83;;
15848;SDS011;8024;48.708;9.394;2023-05-24T02:16:10;4.03;;;2.33;;
15848;SDS011;8024;48.708;9.394;2023-05-24T02:18:37;6.73;;;2.83;;
15848;SDS011;8024;48.708;9.394;2023-05-24T02:21:04;5.70;;;3.00;;
15848;SDS011;8024;48.708;9.394;2023-05-24T02:23:31;5.97;;;3.07;;
15848;SDS011;8024;48.708;9.394;2023-05-24T02:25:58;6.93;;;2.50;;
15848;SDS011;8024;48.708;9.394;2023-05-24T02:28:27;9.47;;;3.37;;
15848;SDS011;8024;48.708;9.394;2023-05-24T02:30:56;5.13;;;2.73;;
15848;SDS011;8024;48.708;9.394;2023-05-24T02:33:23;4.67;;;2.73;;
15848;SDS011;8024;48.708;9.394;2023-05-24T02:35:50;3.33;;;2.37;;
15848;SDS011;8024;48.708;9.394;2023-05-24T02:38:17;5.57;;;2.83;;
15848;SDS011;8024;48.708;9.394;2023-05-24T02:40:44;5.07;;;2.47;;
15848;SDS011;8024;48.708;9.394;2023-05-24T02:43:11;6.50;;;3.00;;
15848;SDS011;8024;48.708;9.394;2023-05-24T02:45:40;5.03;;;2.77;;
15848;SDS011;8024;48.708;9.394;2023-05-24T02:48:07;4.37;;;2.60;;
15848;SDS011;8024;48.708;9.394;2023-05-24T02:50:34;5.97;;;2.87;;
15848;SDS011;8024;48.708;9.394;2023-05-24T02:53:01;5.90;;;3.10;;
15848;SDS011;8024;48.708;9.394;2023-05-24T02:55:29;5.70;;;3.47;;
15848;SDS011;8024;48.708;9.394;2023-05-24T02:57:57;6.03;;;3.53;;
15848;SDS011;8024;48.708;9.394;2023-05-24T03:00:25;5.97;;;2.83;;
15848;SDS011;8024;48.708;9.394;2023-05-24T03:02:53;4.43;;;2.77;;
15848;SDS011;8024;48.708;9.394;2023-05-24T03:05:24;3.60;;;3.10;;
15848;SDS011;8024;48.708;9.394;2023-05-24T03:07:51;6.37;;;3.30;;
15848;SDS011;8024;48.708;9.394;2023-05-24T03:10:18;3.70;;;3.10;;
15848;SDS011;8024;48.708;9.394;2023-05-24T03:12:45;8.67;;;2.90;;
15848;SDS011;8024;48.708;9.394;2023-05-24T03:15:13;4.67;;;3.00;;
15848;SDS011;8024;48.708;9.394;2023-05-24T03:17:40;4.17;;;2.73;;
15848;SDS011;8024;48.708;9.394;2023-05-24T03:20:09;6.30;;;3.63;;
15848;SDS011;8024;48.708;9.394;2023-05-24T03:22:37;5.93;;;3.13;;
15848;SDS011;8024;48.708;9.394;2023-05-24T03:25:04;9.27;;;3.70;;
15848;SDS011;8024;48.708;9.394;2023-05-24T03:27:32;10.53;;;3.37;;
15848;SDS011;8024;48.708;9.394;2023-05-24T03:30:00;6.53;;;3.30;;
15848;SDS011;8024;48.708;9.394;2023-05-24T03:32:27;4.43;;;3.10;;
15848;SDS011;8024;48.708;9.394;2023-05-24T03:34:54;7.13;;;3.10;;
15848;SDS011;8024;48.708;9.394;2023-05-24T03:37:24;6.53;;;3.23;;
15848;SDS011;8024;48.708;9.394;2023-05-24T03:39:51;4.50;;;3.00;;
15848;SDS011;8024;48.708;9.394;2023-05-24T03:42:19;5.37;;;3.27;;
15848;SDS011;8024;48.708;9.394;2023-05-24T03:44:46;6.47;;;3.00;;
15848;SDS011;8024;48.708;9.394;2023-05-24T03:47:13;7.40;;;3.40;;
15848;SDS011;8024;48.708;9.394;2023-05-24T03:49:40;7.53;;;3.53;;
15848;SDS011;8024;48.708;9.394;2023-05-24T03:52:07;3.90;;;3.20;;
15848;SDS011;8024;48.708;9.394;2023-05-24T03:54:37;6.10;;;3.20;;
15848;SDS011;8024;48.708;9.394;2023-05-24T03:57:04;4.87;;;3.17;;
15848;SDS011;8024;48.708;9.394;2023-05-24T03:59:31;5.47;;;3.83;;
15848;SDS011;8024;48.708;9.394;2023-05-24T04:01:58;4.80;;;3.40;;
15848;SDS011;8024;48.708;9.394;2023-05-24T04:04:25;7.57;;;3.53;;
15848;SDS011;8024;48.708;9.394;2023-05-24T04:06:53;5.50;;;3.03;;
15848;SDS011;8024;48.708;9.394;2023-05-24T04:09:21;7.80;;;3.90;;
15848;SDS011;8024;48.708;9.394;2023-05-24T04:11:50;6.27;;;3.17;;
15848;SDS011;8024;48.708;9.394;2023-05-24T04:14:17;7.37;;;4.20;;
15848;SDS011;8024;48.708;9.394;2023-05-24T04:16:44;5.93;;;3.07;;
15848;SDS011;8024;48.708;9.394;2023-05-24T04:19:12;4.80;;;3.60;;
15848;SDS011;8024;48.708;9.394;2023-05-24T04:21:39;8.37;;;3.43;;
15848;SDS011;8024;48.708;9.394;2023-05-24T04:24:06;5.77;;;3.57;;
15848;SDS011;8024;48.708;9.394;2023-05-24T04:26:33;6.60;;;2.93;;
15848;SDS011;8024;48.708;9.394;2023-05-24T04:29:03;8.47;;;3.10;;
15848;SDS011;8024;48.708;9.394;2023-05-24T04:31:31;8.20;;;3.73;;
15848;SDS011;8024;48.708;9.394;2023-05-24T04:33:59;8.27;;;4.17;;
15848;SDS011;8024;48.708;9.394;2023-05-24T04:36:26;11.77;;;3.80;;
15848;SDS011;8024;48.708;9.394;2023-05-24T04:38:55;4.63;;;3.53;;
15848;SDS011;8024;48.708;9.394;2023-05-24T04:41:26;7.03;;;3.90;;
15848;SDS011;8024;48.708;9.394;2023-05-24T04:43:56;6.57;;;3.20;;
15848;SDS011;8024;48.708;9.394;2023-05-24T04:46:25;7.27;;;3.40;;
15848;SDS011;8024;48.708;9.394;2023-05-24T04:48:52;6.73;;;3.60;;
15848;SDS011;8024;48.708;9.394;2023-05-24T04:51:20;10.20;;;3.40;;
15848;SDS011;8024;48.708;9.394;2023-05-24T04:53:48;7.53;;;3.17;;
15848;SDS011;8024;48.708;9.394;2023-05-24T04:56:15;11.37;;;3.80;;
15848;SDS011;8024;48.708;9.394;2023-05-24T04:58:43;6.10;;;3.63;;
15848;SDS011;8024;48.708;9.394;2023-05-24T05:01:11;7.23;;;3.23;;
15848;SDS011;8024;48.708;9.394;2023-05-24T05:03:39;5.53;;;3.40;;
15848;SDS011;8024;48.708;9.394;2023-05-24T05:06:08;9.90;;;3.60;;
15848;SDS011;8024;48.708;9.394;2023-05-24T05:08:36;8.17;;;3.73;;
15848;SDS011;8024;48.708;9.394;2023-05-24T05:11:03;5.97;;;3.43;;
15848;SDS011;8024;48.708;9.394;2023-05-24T05:13:30;5.97;;;3.80;;
15848;SDS011;8024;48.708;9.394;2023-05-24T05:15:57;6.03;;;3.27;;
15848;SDS011;8024;48.708;9.394;2023-05-24T05:18:24;8.20;;;4.07;;
15848;SDS011;8024;48.708;9.394;2023-05-24T05:20:53;7.97;;;3.83;;
15848;SDS011;8024;48.708;9.394;2023-05-24T05:23:20;9.27;;;3.07;;
15848;SDS011;8024;48.708;9.394;2023-05-24T05:25:47;8.30;;;2.93;;
15848;SDS011;8024;48.708;9.394;2023-05-24T05:28:14;5.37;;;3.43;;
15848;SDS011;8024;48.708;9.394;2023-05-24T05:30:41;5.10;;;3.30;;
15848;SDS011;8024;48.708;9.394;2023-05-24T05:33:08;6.67;;;3.47;;
15848;SDS011;8024;48.708;9.394;2023-05-24T05:35:35;8.80;;;3.80;;
15848;SDS011;8024;48.708;9.394;2023-05-24T05:38:04;6.07;;;3.43;;
15848;SDS011;8024;48.708;9.394;2023-05-24T05:40:31;5.33;;;3.50;;
15848;SDS011;8024;48.708;9.394;2023-05-24T05:42:58;6.63;;;3.10;;
15848;SDS011;8024;48.708;9.394;2023-05-24T05:45:26;6.57;;;3.17;;
15848;SDS011;8024;48.708;9.394;2023-05-24T05:47:53;9.53;;;4.13;;
15848;SDS011;8024;48.708;9.394;2023-05-24T05:50:20;8.33;;;3.60;;
15848;SDS011;8024;48.708;9.394;2023-05-24T05:52:47;4.73;;;3.60;;
15848;SDS011;8024;48.708;9.394;2023-05-24T05:55:16;4.20;;;3.07;;
15848;SDS011;8024;48.708;9.394;2023-05-24T05:57:43;6.70;;;3.53;;
15848;SDS011;8024;48.708;9.394;2023-05-24T06:00:10;5.03;;;3.23;;
15848;SDS011;8024;48.708;9.394;2023-05-24T06:02:38;6.43;;;3.47;;
15848;SDS011;8024;48.708;9.394;2023-05-24T06:05:05;7.63;;;3.20;;
15848;SDS011;8024;48.708;9.394;2023-05-24T06:07:33;10.23;;;4.40;;
15848;SDS011;8024;48.708;9.394;2023-05-24T06:10:01;6.53;;;3.50;;
15848;SDS011;8024;48.708;9.394;2023-05-24T06:12:30;8.87;;;3.80;;
15848;SDS011;8024;48.708;9.394;2023-05-24T06:14:57;7.17;;;4.17;;
15848;SDS011;8024;48.708;9.394;2023-05-24T06:17:25;7.33;;;3.77;;
15848;SDS011;8024;48.708;9.394;2023-05-24T06:19:53;5.93;;;3.30;;
15848;SDS011;8024;48.708;9.394;2023-05-24T06:22:20;6.87;;;3.80;;
15848;SDS011;8024;48.708;9.394;2023-05-24T06:24:47;8.80;;;3.53;;
15848;SDS011;8024;48.708;9.394;2023-05-24T06:27:14;6.90;;;3.57;;
15848;SDS011;8024;48.708;9.394;2023-05-24T06:29:43;7.50;;;3.57;;
15848;SDS011;8024;48.708;9.394;2023-05-24T06:32:10;7.70;;;3.50;;
15848;SDS011;8024;48.708;9.394;2023-05-24T06:34:37;9.27;;;4.27;;
15848;SDS011;8024;48.708;9.394;2023-05-24T06:37:05;7.30;;;3.70;;
15848;SDS011;8024;48.708;9.394;2023-05-24T06:39:34;8.50;;;3.63;;
15848;SDS011;8024;48.708;9.394;2023-05-24T06:42:01;8.57;;;3.30;;
15848;SDS011;8024;48.708;9.394;2023-05-24T06:44:29;6.10;;;3.13;;
15848;SDS011;8024;48.708;9.394;2023-05-24T06:46:59;7.17;;;3.23;;
15848;SDS011;8024;48.708;9.394;2023-05-24T06:49:27;7.20;;;3.33;;
15848;SDS011;8024;48.708;9.394;2023-05-24T06:51:54;6.27;;;3.50;;
15848;SDS011;8024;48.708;9.394;2023-05-24T06:54:21;7.50;;;3.00;;
15848;SDS011;8024;48.708;9.394;2023-05-24T06:56:49;6.97;;;3.57;;
15848;SDS011;8024;48.708;9.394;2023-05-24T06:59:16;8.87;;;3.40;;
15848;SDS011;8024;48.708;9.394;2023-05-24T07:01:43;4.73;;;3.50;;
15848;SDS011;8024;48.708;9.394;2023-05-24T07:04:13;7.03;;;2.90;;
15848;SDS011;8024;48.708;9.394;2023-05-24T07:06:40;7.93;;;3.40;;
15848;SDS011;8024;48.708;9.394;2023-05-24T07:09:07;9.13;;;4.13;;
15848;SDS011;8024;48.708;9.394;2023-05-24T07:11:35;5.37;;;3.20;;
15848;SDS011;8024;48.708;9.394;2023-05-24T07:14:02;10.03;;;4.33;;
15848;SDS011;8024;48.708;9.394;2023-05-24T07:16:29;7.37;;;3.60;;
15848;SDS011;8024;48.708;9.394;2023-05-24T07:18:56;4.90;;;3.20;;
15848;SDS011;8024;48.708;9.394;2023-05-24T07:21:24;10.57;;;5.00;;
15848;SDS011;8024;48.708;9.394;2023-05-24T07:23:52;5.47;;;3.37;;
15848;SDS011;8024;48.708;9.394;2023-05-24T07:26:19;8.57;;;4.17;;
15848;SDS011;8024;48.708;9.394;2023-05-24T07:28:47;7.53;;;3.47;;
15848;SDS011;8024;48.708;9.394;2023-05-24T07:31:15;6.07;;;3.50;;
15848;SDS011;8024;48.708;9.394;2023-05-24T07:33:42;6.80;;;3.30;;
15848;SDS011;8024;48.708;9.394;2023-05-24T07:36:10;6.60;;;3.47;;
15848;SDS011;8024;48.708;9.394;2023-05-24T07:38:39;4.83;;;3.77;;
15848;SDS011;8024;48.708;9.394;2023-05-24T07:41:06;6.57;;;3.67;;
15848;SDS011;8024;48.708;9.394;2023-05-24T07:43:33;6.73;;;3.27;;
15848;SDS011;8024;48.708;9.394;2023-05-24T07:46:01;10.43;;;4.00;;
15848;SDS011;8024;48.708;9.394;2023-05-24T07:48:29;8.27;;;3.67;;
15848;SDS011;8024;48.708;9.394;2023-05-24T07:50:56;7.30;;;3.90;;
15848;SDS011;8024;48.708;9.394;2023-05-24T07:53:23;10.20;;;3.97;;
15848;SDS011;8024;48.708;9.394;2023-05-24T07:55:51;9.40;;;4.30;;
15848;SDS011;8024;48.708;9.394;2023-05-24T07:58:19;8.73;;;4.07;;
15848;SDS011;8024;48.708;9.394;2023-05-24T08:00:46;8.83;;;3.60;;
15848;SDS011;8024;48.708;9.394;2023-05-24T08:03:13;9.30;;;3.80;;
15848;SDS011;8024;48.708;9.394;2023-05-24T08:05:41;7.47;;;2.90;;
15848;SDS011;8024;48.708;9.394;2023-05-24T08:08:08;6.63;;;3.67;;
15848;SDS011;8024;48.708;9.394;2023-05-24T08:10:35;5.50;;;3.17;;
15848;SDS011;8024;48.708;9.394;2023-05-24T08:13:04;4.70;;;3.70;;
15848;SDS011;8024;48.708;9.394;2023-05-24T08:15:31;8.77;;;3.80;;
15848;SDS011;8024;48.708;9.394;2023-05-24T08:17:58;8.97;;;4.00;;
15848;SDS011;8024;48.708;9.394;2023-05-24T08:20:25;6.83;;;3.57;;
15848;SDS011;8024;48.708;9.394;2023-05-24T08:22:53;5.33;;;3.67;;
15848;SDS011;8024;48.708;9.394;2023-05-24T08:25:20;8.90;;;4.17;;
15848;SDS011;8024;48.708;9.394;2023-05-24T08:27:47;7.83;;;3.67;;
15848;SDS011;8024;48.708;9.394;2023-05-24T08:30:17;7.00;;;3.80;;
15848;SDS011;8024;48.708;9.394;2023-05-24T08:32:44;7.47;;;3.60;;
15848;SDS011;8024;48.708;9.394;2023-05-24T08:35:12;9.67;;;3.73;;
15848;SDS011;8024;48.708;9.394;2023-05-24T08:37:39;9.30;;;3.93;;
15848;SDS011;8024;48.708;9.394;2023-05-24T08:40:06;6.87;;;3.60;;
15848;SDS011;8024;48.708;9.394;2023-05-24T08:42:35;9.10;;;3.90;;
15848;SDS011;8024;48.708;9.394;2023-05-24T08:45:06;7.13;;;3.60;;
15848;SDS011;8024;48.708;9.394;2023-05-24T08:47:37;6.60;;;4.17;;
15848;SDS011;8024;48.708;9.394;2023-05-24T08:50:06;6.50;;;3.27;;
15848;SDS011;8024;48.708;9.394;2023-05-24T08:52:34;9.40;;;3.33;;
15848;SDS011;8024;48.708;9.394;2023-05-24T08:55:02;6.67;;;3.70;;
15848;SDS011;8024;48.708;9.394;2023-05-24T08:57:30;10.73;;;3.80;;
15848;SDS011;8024;48.708;9.394;2023-05-24T08:59:58;8.57;;;4.00;;
15848;SDS011;8024;48.708;9.394;2023-05-24T09:02:25;10.63;;;4.07;;
15848;SDS011;8024;48.708;9.394;2023-05-24T09:04:55;6.67;;;3.00;;
15848;SDS011;8024;48.708;9.394;2023-05-24T09:07:23;6.83;;;3.73;;
15848;SDS011;8024;48.708;9.394;2023-05-24T09:09:52;9.67;;;3.73;;
15848;SDS011;8024;48.708;9.394;2023-05-24T09:12:23;6.67;;;3.43;;
15848;SDS011;8024;48.708;9.394;2023-05-24T09:14:52;7.17;;;3.70;;
15848;SDS011;8024;48.708;9.394;2023-05-24T09:17:19;9.60;;;3.47;;
15848;SDS011;8024;48.708;9.394;2023-05-24T09:19:50;5.73;;;3.30;;
15848;SDS011;8024;48.708;9.394;2023-05-24T09:22:19;10.80;;;3.53;;
15848;SDS011;8024;48.708;9.394;2023-05-24T09:24:51;6.97;;;4.40;;
15848;SDS011;8024;48.708;9.394;2023-05-24T09:27:22;8.33;;;3.20;;
15848;SDS011;8024;48.708;9.394;2023-05-24T09:29:49;9.90;;;4.10;;
15848;SDS011;8024;48.708;9.394;2023-05-24T09:32:18;10.47;;;3.43;;
15848;SDS011;8024;48.708;9.394;2023-05-24T09:34:48;8.37;;;3.17;;
15848;SDS011;8024;48.708;9.394;2023-05-24T09:37:17;6.63;;;3.53;;
15848;SDS011;8024;48.708;9.394;2023-05-24T09:39:47;8.47;;;3.17;;
15848;SDS011;8024;48.708;9.394;2023-05-24T09:42:16;10.40;;;3.87;;
15848;SDS011;8024;48.708;9.394;2023-05-24T09:44:46;7.67;;;3.53;;
15848;SDS011;8024;48.708;9.394;2023-05-24T09:47:14;9.00;;;3.90;;
15848;SDS011;8024;48.708;9.394;2023-05-24T09:49:41;7.47;;;3.87;;
15848;SDS011;8024;48.708;9.394;2023-05-24T09:52:09;7.93;;;3.37;;
15848;SDS011;8024;48.708;9.394;2023-05-24T09:54:40;13.03;;;3.63;;
15848;SDS011;8024;48.708;9.394;2023-05-24T09:57:09;5.80;;;3.83;;
15848;SDS011;8024;48.708;9.394;2023-05-24T09:59:38;9.30;;;3.70;;
15848;SDS011;8024;48.708;9.394;2023-05-24T10:02:07;12.07;;;3.73;;
15848;SDS011;8024;48.708;9.394;2023-05-24T10:04:35;7.37;;;3.97;;
15848;SDS011;8024;48.708;9.394;2023-05-24T10:07:03;7.13;;;3.27;;
15848;SDS011;8024;48.708;9.394;2023-05-24T10:09:31;7.90;;;3.50;;
15848;SDS011;8024;48.708;9.394;2023-05-24T10:12:01;13.37;;;4.43;;
15848;SDS011;8024;48.708;9.394;2023-05-24T10:14:30;6.40;;;3.80;;
15848;SDS011;8024;48.708;9.394;2023-05-24T10:17:00;7.73;;;3.20;;
15848;SDS011;8024;48.708;9.394;2023-05-24T10:19:27;6.80;;;3.70;;
15848;SDS011;8024;48.708;9.394;2023-05-24T10:21:55;11.87;;;5.57;;
15848;SDS011;8024;48.708;9.394;2023-05-24T10:24:43;7.47;;;3.43;;
15848;SDS011;8024;48.708;9.394;2023-05-24T10:27:14;7.97;;;3.80;;
15848;SDS011;8024;48.708;9.394;2023-05-24T10:29:47;7.30;;;3.53;;
15848;SDS011;8024;48.708;9.394;2023-05-24T10:32:23;9.43;;;3.83;;
15848;SDS011;8024;48.708;9.394;2023-05-24T10:34:55;6.73;;;3.50;;
15848;SDS011;8024;48.708;9.394;2023-05-24T10:37:23;8.33;;;3.47;;
15848;SDS011;8024;48.708;9.394;2023-05-24T10:39:51;9.23;;;4.43;;
15848;SDS011;8024;48.708;9.394;2023-05-24T10:42:20;6.70;;;4.10;;
15848;SDS011;8024;48.708;9.394;2023-05-24T10:44:47;9.53;;;3.97;;
15848;SDS011;8024;48.708;9.394;2023-05-24T10:47:15;10.43;;;3.33;;
15848;SDS011;8024;48.708;9.394;2023-05-24T10:49:46;11.87;;;4.37;;
15848;SDS011;8024;48.708;9.394;2023-05-24T10:52:15;9.93;;;4.00;;
15848;SDS011;8024;48.708;9.394;2023-05-24T10:57:30;7.73;;;3.77;;
15848;SDS011;8024;48.708;9.394;2023-05-24T11:00:00;7.30;;;3.63;;
15848;SDS011;8024;48.708;9.394;2023-05-24T11:02:58;10.43;;;3.60;;
15848;SDS011;8024;48.708;9.394;2023-05-24T11:05:31;7.97;;;4.50;;
15848;SDS011;8024;48.708;9.394;2023-05-24T11:07:59;6.43;;;4.10;;
15848;SDS011;8024;48.708;9.394;2023-05-24T11:10:31;8.83;;;4.40;;
15848;SDS011;8024;48.708;9.394;2023-05-24T11:13:02;7.37;;;4.00;;
15848;SDS011;8024;48.708;9.394;2023-05-24T11:15:32;9.10;;;4.27;;
15848;SDS011;8024;48.708;9.394;2023-05-24T11:18:12;8.97;;;4.50;;
15848;SDS011;8024;48.708;9.394;2023-05-24T11:20:40;9.23;;;4.37;;
15848;SDS011;8024;48.708;9.394;2023-05-24T11:23:08;9.20;;;4.57;;
15848;SDS011;8024;48.708;9.394;2023-05-24T11:25:37;9.00;;;4.17;;
15848;SDS011;8024;48.708;9.394;2023-05-24T11:28:07;8.87;;;4.20;;
15848;SDS011;8024;48.708;9.394;2023-05-24T11:30:37;6.70;;;4.20;;
15848;SDS011;8024;48.708;9.394;2023-05-24T11:33:12;7.53;;;4.33;;
15848;SDS011;8024;48.708;9.394;2023-05-24T11:35:40;7.37;;;3.77;;
15848;SDS011;8024;48.708;9.394;2023-05-24T11:38:08;10.20;;;3.87;;
15848;SDS011;8024;48.708;9.394;2023-05-24T11:40:37;8.70;;;3.83;;
15848;SDS011;8024;48.708;9.394;2023-05-24T11:43:10;8.53;;;4.70;;
15848;SDS011;8024;48.708;9.394;2023-05-24T11:45:39;7.97;;;3.90;;
15848;SDS011;8024;48.708;9.394;2023-05-24T11:48:08;10.30;;;4.40;;
15848;SDS011;8024;48.708;9.394;2023-05-24T11:50:38;7.23;;;4.53;;
15848;SDS011;8024;48.708;9.394;2023-05-24T11:53:08;9.80;;;4.43;;
15848;SDS011;8024;48.708;9.394;2023-05-24T11:55:36;6.30;;;4.47;;
15848;SDS011;8024;48.708;9.394;2023-05-24T11:58:05;6.53;;;4.43;;
15848;SDS011;8024;48.708;9.394;2023-05-24T12:00:37;9.07;;;4.00;;
15848;SDS011;8024;48.708;9.394;2023-05-24T12:03:04;9.33;;;4.20;;
15848;SDS011;8024;48.708;9.394;2023-05-24T12:05:33;12.27;;;4.10;;
15848;SDS011;8024;48.708;9.394;2023-05-24T12:08:02;9.40;;;4.37;;
15848;SDS011;8024;48.708;9.394;2023-05-24T12:10:32;8.10;;;3.90;;
15848;SDS011;8024;48.708;9.394;2023-05-24T12:13:00;6.30;;;3.87;;
15848;SDS011;8024;48.708;9.394;2023-05-24T12:15:27;7.97;;;4.07;;
15848;SDS011;8024;48.708;9.394;2023-05-24T12:17:57;8.77;;;3.57;;
15848;SDS011;8024;48.708;9.394;2023-05-24T12:20:27;5.60;;;3.43;;
15848;SDS011;8024;48.708;9.394;2023-05-24T12:22:55;9.37;;;4.10;;
15848;SDS011;8024;48.708;9.394;2023-05-24T12:25:22;9.53;;;3.73;;
15848;SDS011;8024;48.708;9.394;2023-05-24T12:27:51;4.73;;;3.27;;
15848;SDS011;8024;48.708;9.394;2023-05-24T12:30:20;5.23;;;3.93;;
15848;SDS011;8024;48.708;9.394;2023-05-24T12:32:48;7.40;;;3.20;;
15848;SDS011;8024;48.708;9.394;2023-05-24T12:35:19;10.93;;;3.87;;
15848;SDS011;8024;48.708;9.394;2023-05-24T12:37:46;7.30;;;3.77;;
15848;SDS011;8024;48.708;9.394;2023-05-24T12:40:15;4.83;;;3.53;;
15848;SDS011;8024;48.708;9.394;2023-05-24T12:42:44;10.93;;;4.20;;
15848;SDS011;8024;48.708;9.394;2023-05-24T12:45:14;6.00;;;3.80;;
15848;SDS011;8024;48.708;9.394;2023-05-24T12:47:46;6.00;;;3.30;;
15848;SDS011;8024;48.708;9.394;2023-05-24T12:50:14;5.73;;;2.93;;
15848;SDS011;8024;48.708;9.394;2023-05-24T12:52:43;5.03;;;3.03;;
15848;SDS011;8024;48.708;9.394;2023-05-24T12:55:11;6.00;;;3.03;;
15848;SDS011;8024;48.708;9.394;2023-05-24T12:57:39;7.67;;;2.73;;
15848;SDS011;8024;48.708;9.394;2023-05-24T13:00:07;6.83;;;3.00;;
15848;SDS011;8024;48.708;9.394;2023-05-24T13:02:35;6.47;;;3.27;;
15848;SDS011;8024;48.708;9.394;2023-05-24T13:05:03;6.33;;;2.97;;
15848;SDS011;8024;48.708;9.394;2023-05-24T13:07:32;7.00;;;3.33;;
15848;SDS011;8024;48.708;9.394;2023-05-24T13:10:01;8.97;;;3.03;;
15848;SDS011;8024;48.708;9.394;2023-05-24T13:12:28;6.77;;;2.90;;
15848;SDS011;8024;48.708;9.394;2023-05-24T13:14:55;6.43;;;3.20;;
15848;SDS011;8024;48.708;9.394;2023-05-24T13:17:23;6.97;;;3.47;;
15848;SDS011;8024;48.708;9.394;2023-05-24T13:19:50;7.03;;;3.57;;
15848;SDS011;8024;48.708;9.394;2023-05-24T13:22:17;10.13;;;3.77;;
15848;SDS011;8024;48.708;9.394;2023-05-24T13:24:44;6.33;;;2.87;;
15848;SDS011;8024;48.708;9.394;2023-05-24T13:27:13;7.40;;;2.80;;
15848;SDS011;8024;48.708;9.394;2023-05-24T13:29:41;5.13;;;2.30;;
15848;SDS011;8024;48.708;9.394;2023-05-24T13:32:08;7.10;;;2.77;;
15848;SDS011;8024;48.708;9.394;2023-05-24T13:34:35;7.33;;;2.47;;
15848;SDS011;8024;48.708;9.394;2023-05-24T13:37:03;4.47;;;2.30;;
15848;SDS011;8024;48.708;9.394;2023-05-24T13:39:31;5.40;;;2.67;;
15848;SDS011;8024;48.708;9.394;2023-05-24T13:41:59;6.40;;;2.20;;
15848;SDS011;8024;48.708;9.394;2023-05-24T13:44:27;5.97;;;2.80;;
15848;SDS011;8024;48.708;9.394;2023-05-24T13:46:56;5.03;;;2.37;;
15848;SDS011;8024;48.708;9.394;2023-05-24T13:49:23;6.47;;;2.10;;
15848;SDS011;8024;48.708;9.394;2023-05-24T13:51:51;5.70;;;2.20;;
15848;SDS011;8024;48.708;9.394;2023-05-24T13:54:18;4.13;;;2.20;;
15848;SDS011;8024;48.708;9.394;2023-05-24T13:56:46;4.00;;;1.90;;
15848;SDS011;8024;48.708;9.394;2023-05-24T13:59:14;5.03;;;2.07;;
15848;SDS011;8024;48.708;9.394;2023-05-24T14:01:43;3.97;;;1.80;;
15848;SDS011;8024;48.708;9.394;2023-05-24T14:04:10;4.13;;;1.87;;
15848;SDS011;8024;48.708;9.394;2023-05-24T14:06:37;3.67;;;1.90;;
15848;SDS011;8024;48.708;9.394;2023-05-24T14:09:04;3.50;;;1.87;;
15848;SDS011;8024;48.708;9.394;2023-05-24T14:11:32;4.17;;;2.13;;
15848;SDS011;8024;48.708;9.394;2023-05-24T14:14:00;4.63;;;1.93;;
15848;SDS011;8024;48.708;9.394;2023-05-24T14:16:27;3.33;;;1.80;;
15848;SDS011;8024;48.708;9.394;2023-05-24T14:18:56;3.33;;;2.07;;
15848;SDS011;8024;48.708;9.394;2023-05-24T14:21:23;5.33;;;2.00;;
15848;SDS011;8024;48.708;9.394;2023-05-24T14:23:50;4.40;;;1.93;;
15848;SDS011;8024;48.708;9.394;2023-05-24T14:26:18;4.13;;;1.93;;
15848;SDS011;8024;48.708;9.394;2023-05-24T14:28:46;3.43;;;1.50;;
15848;SDS011;8024;48.708;9.394;2023-05-24T14:31:13;4.63;;;1.97;;
15848;SDS011;8024;48.708;9.394;2023-05-24T14:33:40;5.30;;;1.47;;
15848;SDS011;8024;48.708;9.394;2023-05-24T14:36:08;3.77;;;1.50;;
15848;SDS011;8024;48.708;9.394;2023-05-24T14:38:36;5.03;;;2.10;;
15848;SDS011;8024;48.708;9.394;2023-05-24T14:41:03;2.47;;;1.47;;
15848;SDS011;8024;48.708;9.394;2023-05-24T14:43:30;3.87;;;1.43;;
15848;SDS011;8024;48.708;9.394;2023-05-24T14:45:57;2.73;;;1.37;;
15848;SDS011;8024;48.708;9.394;2023-05-24T14:48:24;3.97;;;1.63;;
15848;SDS011;8024;48.708;9.394;2023-05-24T14:50:51;2.67;;;1.63;;
15848;SDS011;8024;48.708;9.394;2023-05-24T14:53:20;3.37;;;1.70;;
15848;SDS011;8024;48.708;9.394;2023-05-24T14:55:47;3.73;;;1.73;;
15848;SDS011;8024;48.708;9.394;2023-05-24T14:58:14;5.90;;;1.63;;
15848;SDS011;8024;48.708;9.394;2023-05-24T15:00:42;3.67;;;1.53;;
15848;SDS011;8024;48.708;9.394;2023-05-24T15:03:09;4.77;;;1.50;;
15848;SDS011;8024;48.708;9.394;2023-05-24T15:05:38;4.60;;;1.67;;
15848;SDS011;8024;48.708;9.394;2023-05-24T15:08:06;3.30;;;1.47;;
15848;SDS011;8024;48.708;9.394;2023-05-24T15:10:36;4.57;;;1.60;;
15848;SDS011;8024;48.708;9.394;2023-05-24T15:13:04;4.80;;;1.70;;
15848;SDS011;8024;48.708;9.394;2023-05-24T15:15:31;3.70;;;1.30;;
15848;SDS011;8024;48.708;9.394;2023-05-24T15:17:58;4.60;;;1.50;;
15848;SDS011;8024;48.708;9.394;2023-05-24T15:20:25;2.77;;;1.70;;
15848;SDS011;8024;48.708;9.394;2023-05-24T15:22:52;2.87;;;1.50;;
15848;SDS011;8024;48.708;9.394;2023-05-24T15:25:19;3.40;;;1.50;;